sensor_id;sensor_type;location;lat;lon;timestamp;pressure;altitude;pressure_sealevel;temperature
73734;BMP280;62039;50.000;9.064;2023-04-01T00:01:22;98684.75;;;9.69
73734;BMP280;62039;50.000;9.064;2023-04-01T00:03:49;98682.72;;;9.71
73734;BMP280;62039;50.000;9.064;2023-04-01T00:06:17;98692.97;;;9.73
73734;BMP280;62039;50.000;9.064;2023-04-01T00:08:44;98683.75;;;9.70
73734;BMP280;62039;50.000;9.064;2023-04-01T00:11:12;98680.53;;;9.68
73734;BMP280;62039;50.000;9.064;2023-04-01T00:13:41;98688.53;;;9.67
73734;BMP280;62039;50.000;9.064;2023-04-01T00:16:08;98683.72;;;9.64
73734;BMP280;62039;50.000;9.064;2023-04-01T00:18:47;98678.69;;;9.62
73734;BMP280;62039;50.000;9.064;2023-04-01T00:21:15;98673.66;;;9.61
73734;BMP280;62039;50.000;9.064;2023-04-01T00:23:42;98679.69;;;9.61
73734;BMP280;62039;50.000;9.064;2023-04-01T00:26:09;98667.78;;;9.59
73734;BMP280;62039;50.000;9.064;2023-04-01T00:28:36;98668.00;;;9.57
73734;BMP280;62039;50.000;9.064;2023-04-01T00:31:10;98667.22;;;9.57
73734;BMP280;62039;50.000;9.064;2023-04-01T00:33:37;98665.78;;;9.54
73734;BMP280;62039;50.000;9.064;2023-04-01T00:36:08;98670.38;;;9.52
73734;BMP280;62039;50.000;9.064;2023-04-01T00:38:35;98673.97;;;9.51
73734;BMP280;62039;50.000;9.064;2023-04-01T00:41:02;98660.34;;;9.49
73734;BMP280;62039;50.000;9.064;2023-04-01T00:43:30;98673.56;;;9.48
73734;BMP280;62039;50.000;9.064;2023-04-01T00:45:57;98674.56;;;9.47
73734;BMP280;62039;50.000;9.064;2023-04-01T00:48:28;98676.53;;;9.44
73734;BMP280;62039;50.000;9.064;2023-04-01T00:50:59;98672.13;;;9.45
73734;BMP280;62039;50.000;9.064;2023-04-01T00:53:28;98673.16;;;9.44
73734;BMP280;62039;50.000;9.064;2023-04-01T00:55:59;98671.53;;;9.43
73734;BMP280;62039;50.000;9.064;2023-04-01T00:58:29;98667.31;;;9.42
73734;BMP280;62039;50.000;9.064;2023-04-01T01:00:58;98669.13;;;9.41
73734;BMP280;62039;50.000;9.064;2023-04-01T01:03:29;98670.91;;;9.41
73734;BMP280;62039;50.000;9.064;2023-04-01T01:06:11;98668.31;;;9.41
73734;BMP280;62039;50.000;9.064;2023-04-01T01:08:59;98662.47;;;9.39
73734;BMP280;62039;50.000;9.064;2023-04-01T01:11:33;98673.13;;;9.37
73734;BMP280;62039;50.000;9.064;2023-04-01T01:14:20;98673.91;;;9.38
73734;BMP280;62039;50.000;9.064;2023-04-01T01:16:51;98668.91;;;9.36
73734;BMP280;62039;50.000;9.064;2023-04-01T01:19:39;98676.91;;;9.35
73734;BMP280;62039;50.000;9.064;2023-04-01T01:22:22;98671.69;;;9.35
73734;BMP280;62039;50.000;9.064;2023-04-01T01:24:58;98674.28;;;9.35
73734;BMP280;62039;50.000;9.064;2023-04-01T01:27:33;98669.28;;;9.33
73734;BMP280;62039;50.000;9.064;2023-04-01T01:30:21;98664.88;;;9.34
73734;BMP280;62039;50.000;9.064;2023-04-01T01:33:24;98669.22;;;9.27
73734;BMP280;62039;50.000;9.064;2023-04-01T01:36:02;98667.44;;;9.27
73734;BMP280;62039;50.000;9.064;2023-04-01T01:38:33;98662.03;;;9.29
73734;BMP280;62039;50.000;9.064;2023-04-01T01:41:02;98668.06;;;9.29
73734;BMP280;62039;50.000;9.064;2023-04-01T01:43:33;98662.03;;;9.29
73734;BMP280;62039;50.000;9.064;2023-04-01T01:46:06;98656.81;;;9.29
73734;BMP280;62039;50.000;9.064;2023-04-01T01:48:35;98650.63;;;9.30
73734;BMP280;62039;50.000;9.064;2023-04-01T01:51:06;98657.41;;;9.31
73734;BMP280;62039;50.000;9.064;2023-04-01T01:53:33;98663.25;;;9.33
73734;BMP280;62039;50.000;9.064;2023-04-01T01:56:00;98658.03;;;9.33
73734;BMP280;62039;50.000;9.064;2023-04-01T01:58:29;98662.25;;;9.34
73734;BMP280;62039;50.000;9.064;2023-04-01T02:00:59;98663.88;;;9.35
73734;BMP280;62039;50.000;9.064;2023-04-01T02:03:29;98658.66;;;9.35
73734;BMP280;62039;50.000;9.064;2023-04-01T02:05:59;98658.66;;;9.35
73734;BMP280;62039;50.000;9.064;2023-04-01T02:08:32;98648.25;;;9.35
73734;BMP280;62039;50.000;9.064;2023-04-01T02:11:02;98652.66;;;9.34
73734;BMP280;62039;50.000;9.064;2023-04-01T02:13:31;98663.06;;;9.34
73734;BMP280;62039;50.000;9.064;2023-04-01T02:16:03;98667.47;;;9.34
73734;BMP280;62039;50.000;9.064;2023-04-01T02:18:33;98662.25;;;9.34
73734;BMP280;62039;50.000;9.064;2023-04-01T02:21:03;98669.09;;;9.35
73734;BMP280;62039;50.000;9.064;2023-04-01T02:23:35;98660.28;;;9.36
73734;BMP280;62039;50.000;9.064;2023-04-01T02:26:05;98656.69;;;9.37
73734;BMP280;62039;50.000;9.064;2023-04-01T02:28:33;98665.91;;;9.39
73734;BMP280;62039;50.000;9.064;2023-04-01T02:31:01;98661.50;;;9.40
73734;BMP280;62039;50.000;9.064;2023-04-01T02:33:29;98669.94;;;9.42
73734;BMP280;62039;50.000;9.064;2023-04-01T02:35:57;98669.94;;;9.42
73734;BMP280;62039;50.000;9.064;2023-04-01T02:38:24;98669.94;;;9.42
73734;BMP280;62039;50.000;9.064;2023-04-01T02:41:00;98663.91;;;9.41
73734;BMP280;62039;50.000;9.064;2023-04-01T02:43:27;98666.69;;;9.40
73734;BMP280;62039;50.000;9.064;2023-04-01T02:45:54;98671.91;;;9.40
73734;BMP280;62039;50.000;9.064;2023-04-01T02:48:21;98669.31;;;9.40
73734;BMP280;62039;50.000;9.064;2023-04-01T02:50:48;98667.50;;;9.40
73734;BMP280;62039;50.000;9.064;2023-04-01T02:53:15;98681.53;;;9.39
73734;BMP280;62039;50.000;9.064;2023-04-01T02:55:42;98671.28;;;9.38
73734;BMP280;62039;50.000;9.064;2023-04-01T02:58:12;98667.09;;;9.37
73734;BMP280;62039;50.000;9.064;2023-04-01T03:00:39;98670.31;;;9.39
73734;BMP280;62039;50.000;9.064;2023-04-01T03:03:05;98667.50;;;9.40
73734;BMP280;62039;50.000;9.064;2023-04-01T03:05:33;98663.09;;;9.41
73734;BMP280;62039;50.000;9.064;2023-04-01T03:08:00;98667.69;;;9.39
73734;BMP280;62039;50.000;9.064;2023-04-01T03:10:27;98656.69;;;9.37
73734;BMP280;62039;50.000;9.064;2023-04-01T03:12:54;98669.88;;;9.35
73734;BMP280;62039;50.000;9.064;2023-04-01T03:15:23;98660.28;;;9.36
73734;BMP280;62039;50.000;9.064;2023-04-01T03:17:50;98650.84;;;9.35
73734;BMP280;62039;50.000;9.064;2023-04-01T03:20:17;98648.88;;;9.37
73734;BMP280;62039;50.000;9.064;2023-04-01T03:22:44;98648.06;;;9.36
73734;BMP280;62039;50.000;9.064;2023-04-01T03:25:11;98655.66;;;9.38
73734;BMP280;62039;50.000;9.064;2023-04-01T03:27:38;98650.25;;;9.39
73734;BMP280;62039;50.000;9.064;2023-04-01T03:30:06;98657.88;;;9.41
73734;BMP280;62039;50.000;9.064;2023-04-01T03:32:36;98653.50;;;9.41
73734;BMP280;62039;50.000;9.064;2023-04-01T03:35:04;98656.28;;;9.40
73734;BMP280;62039;50.000;9.064;2023-04-01T03:37:31;98657.09;;;9.40
73734;BMP280;62039;50.000;9.064;2023-04-01T03:39:58;98658.25;;;9.38
73734;BMP280;62039;50.000;9.064;2023-04-01T03:42:25;98661.09;;;9.36
73734;BMP280;62039;50.000;9.064;2023-04-01T03:44:52;98653.63;;;9.33
73734;BMP280;62039;50.000;9.064;2023-04-01T03:47:19;98661.44;;;9.33
73734;BMP280;62039;50.000;9.064;2023-04-01T03:49:48;98663.84;;;9.28
73734;BMP280;62039;50.000;9.064;2023-04-01T03:52:15;98664.19;;;9.25
73734;BMP280;62039;50.000;9.064;2023-04-01T03:54:42;98656.59;;;9.24
73734;BMP280;62039;50.000;9.064;2023-04-01T03:57:09;98650.59;;;9.23
73734;BMP280;62039;50.000;9.064;2023-04-01T03:59:36;98655.00;;;9.23
73734;BMP280;62039;50.000;9.064;2023-04-01T04:02:03;98666.22;;;9.23
73734;BMP280;62039;50.000;9.064;2023-04-01T04:04:30;98658.59;;;9.22
73734;BMP280;62039;50.000;9.064;2023-04-01T04:06:59;98663.00;;;9.21
73734;BMP280;62039;50.000;9.064;2023-04-01T04:09:26;98650.97;;;9.20
73734;BMP280;62039;50.000;9.064;2023-04-01T04:11:53;98660.56;;;9.20
73734;BMP280;62039;50.000;9.064;2023-04-01T04:14:20;98648.53;;;9.19
73734;BMP280;62039;50.000;9.064;2023-04-01T04:16:47;98658.16;;;9.18
73734;BMP280;62039;50.000;9.064;2023-04-01T04:19:14;98655.75;;;9.17
73734;BMP280;62039;50.000;9.064;2023-04-01T04:21:41;98653.75;;;9.19
73734;BMP280;62039;50.000;9.064;2023-04-01T04:24:11;98645.75;;;9.20
73734;BMP280;62039;50.000;9.064;2023-04-01T04:26:38;98650.16;;;9.20
73734;BMP280;62039;50.000;9.064;2023-04-01T04:29:05;98642.53;;;9.18
73734;BMP280;62039;50.000;9.064;2023-04-01T04:31:32;98650.53;;;9.17
73734;BMP280;62039;50.000;9.064;2023-04-01T04:34:00;98656.34;;;9.19
73734;BMP280;62039;50.000;9.064;2023-04-01T04:36:27;98643.31;;;9.19
73734;BMP280;62039;50.000;9.064;2023-04-01T04:38:54;98647.72;;;9.18
73734;BMP280;62039;50.000;9.064;2023-04-01T04:41:23;98646.91;;;9.18
73734;BMP280;62039;50.000;9.064;2023-04-01T04:43:51;98641.72;;;9.18
73734;BMP280;62039;50.000;9.064;2023-04-01T04:46:19;98654.94;;;9.16
73734;BMP280;62039;50.000;9.064;2023-04-01T04:48:46;98642.09;;;9.15
73734;BMP280;62039;50.000;9.064;2023-04-01T04:51:14;98651.91;;;9.13
73734;BMP280;62039;50.000;9.064;2023-04-01T04:53:42;98639.88;;;9.12
73734;BMP280;62039;50.000;9.064;2023-04-01T04:56:09;98633.69;;;9.13
73734;BMP280;62039;50.000;9.064;2023-04-01T04:58:39;98639.31;;;9.16
73734;BMP280;62039;50.000;9.064;2023-04-01T05:01:07;98636.50;;;9.18
73734;BMP280;62039;50.000;9.064;2023-04-01T05:03:35;98636.50;;;9.18
73734;BMP280;62039;50.000;9.064;2023-04-01T05:06:02;98638.56;;;9.22
73734;BMP280;62039;50.000;9.064;2023-04-01T05:08:29;98639.34;;;9.23
73734;BMP280;62039;50.000;9.064;2023-04-01T05:10:56;98648.78;;;9.24
73734;BMP280;62039;50.000;9.064;2023-04-01T05:13:23;98640.16;;;9.23
73734;BMP280;62039;50.000;9.064;2023-04-01T05:15:53;98641.75;;;9.24
73734;BMP280;62039;50.000;9.064;2023-04-01T05:18:20;98645.16;;;9.25
73734;BMP280;62039;50.000;9.064;2023-04-01T05:20:48;98638.97;;;9.26
73734;BMP280;62039;50.000;9.064;2023-04-01T05:23:15;98636.16;;;9.27
73734;BMP280;62039;50.000;9.064;2023-04-01T05:25:42;98644.00;;;9.27
73734;BMP280;62039;50.000;9.064;2023-04-01T05:28:09;98638.59;;;9.29
73734;BMP280;62039;50.000;9.064;2023-04-01T05:30:36;98639.41;;;9.29
73734;BMP280;62039;50.000;9.064;2023-04-01T05:33:06;98635.81;;;9.30
73734;BMP280;62039;50.000;9.064;2023-04-01T05:35:33;98635.00;;;9.30
73734;BMP280;62039;50.000;9.064;2023-04-01T05:38:00;98650.41;;;9.31
73734;BMP280;62039;50.000;9.064;2023-04-01T05:40:27;98640.78;;;9.32
73734;BMP280;62039;50.000;9.064;2023-04-01T05:42:54;98637.38;;;9.31
73734;BMP280;62039;50.000;9.064;2023-04-01T05:45:21;98637.38;;;9.31
73734;BMP280;62039;50.000;9.064;2023-04-01T05:47:49;98636.56;;;9.31
73734;BMP280;62039;50.000;9.064;2023-04-01T05:50:19;98647.00;;;9.31
73734;BMP280;62039;50.000;9.064;2023-04-01T05:52:46;98637.78;;;9.28
73734;BMP280;62039;50.000;9.064;2023-04-01T05:55:13;98648.03;;;9.30
73734;BMP280;62039;50.000;9.064;2023-04-01T05:57:39;98641.38;;;9.27
73734;BMP280;62039;50.000;9.064;2023-04-01T06:00:08;98650.81;;;9.28
73734;BMP280;62039;50.000;9.064;2023-04-01T06:02:35;98640.56;;;9.27
73734;BMP280;62039;50.000;9.064;2023-04-01T06:05:09;98647.41;;;9.28
73734;BMP280;62039;50.000;9.064;2023-04-01T06:07:40;98643.81;;;9.29
73734;BMP280;62039;50.000;9.064;2023-04-01T06:10:12;98641.78;;;9.31
73734;BMP280;62039;50.000;9.064;2023-04-01T06:12:47;98643.81;;;9.29
73734;BMP280;62039;50.000;9.064;2023-04-01T06:15:24;98643.19;;;9.27
73734;BMP280;62039;50.000;9.064;2023-04-01T06:18:18;98646.19;;;9.24
73734;BMP280;62039;50.000;9.064;2023-04-01T06:20:53;98647.78;;;9.25
73734;BMP280;62039;50.000;9.064;2023-04-01T06:23:45;98647.19;;;9.23
73734;BMP280;62039;50.000;9.064;2023-04-01T06:26:18;98640.16;;;9.23
73734;BMP280;62039;50.000;9.064;2023-04-01T06:29:10;98645.56;;;9.22
73734;BMP280;62039;50.000;9.064;2023-04-01T06:32:02;98649.75;;;9.16
73734;BMP280;62039;50.000;9.064;2023-04-01T06:34:49;98644.72;;;9.15
73734;BMP280;62039;50.000;9.064;2023-04-01T06:37:34;98641.88;;;9.10
73734;BMP280;62039;50.000;9.064;2023-04-01T06:40:36;98649.25;;;9.06
73734;BMP280;62039;50.000;9.064;2023-04-01T06:43:12;98663.72;;;9.09
73734;BMP280;62039;50.000;9.064;2023-04-01T06:45:47;98657.50;;;9.10
73734;BMP280;62039;50.000;9.064;2023-04-01T06:48:38;98653.28;;;9.09
73734;BMP280;62039;50.000;9.064;2023-04-01T06:51:16;98651.69;;;9.08
73734;BMP280;62039;50.000;9.064;2023-04-01T06:53:51;98651.06;;;9.06
73734;BMP280;62039;50.000;9.064;2023-04-01T06:56:25;98655.09;;;9.08
73734;BMP280;62039;50.000;9.064;2023-04-01T06:58:55;98646.28;;;9.09
73734;BMP280;62039;50.000;9.064;2023-04-01T07:01:28;98640.88;;;9.11
73734;BMP280;62039;50.000;9.064;2023-04-01T07:03:57;98645.28;;;9.10
73734;BMP280;62039;50.000;9.064;2023-04-01T07:06:30;98644.50;;;9.10
73734;BMP280;62039;50.000;9.064;2023-04-01T07:09:00;98644.50;;;9.10
73734;BMP280;62039;50.000;9.064;2023-04-01T07:11:35;98637.66;;;9.09
73734;BMP280;62039;50.000;9.064;2023-04-01T07:14:10;98647.09;;;9.10
73734;BMP280;62039;50.000;9.064;2023-04-01T07:16:43;98645.28;;;9.10
73734;BMP280;62039;50.000;9.064;2023-04-01T07:19:17;98650.28;;;9.12
73734;BMP280;62039;50.000;9.064;2023-04-01T07:21:48;98639.88;;;9.12
73734;BMP280;62039;50.000;9.064;2023-04-01T07:24:21;98639.88;;;9.12
73734;BMP280;62039;50.000;9.064;2023-04-01T07:26:53;98643.09;;;9.14
73734;BMP280;62039;50.000;9.064;2023-04-01T07:29:21;98642.09;;;9.15
73734;BMP280;62039;50.000;9.064;2023-04-01T07:31:58;98639.31;;;9.16
73734;BMP280;62039;50.000;9.064;2023-04-01T07:34:34;98642.09;;;9.15
73734;BMP280;62039;50.000;9.064;2023-04-01T07:37:06;98649.94;;;9.15
73734;BMP280;62039;50.000;9.064;2023-04-01T07:39:41;98649.94;;;9.15
73734;BMP280;62039;50.000;9.064;2023-04-01T07:42:18;98643.91;;;9.14
73734;BMP280;62039;50.000;9.064;2023-04-01T07:44:56;98651.91;;;9.13
73734;BMP280;62039;50.000;9.064;2023-04-01T07:47:36;98653.69;;;9.12
73734;BMP280;62039;50.000;9.064;2023-04-01T07:50:14;98652.09;;;9.11
73734;BMP280;62039;50.000;9.064;2023-04-01T07:52:48;98661.69;;;9.11
73734;BMP280;62039;50.000;9.064;2023-04-01T07:55:23;98662.50;;;9.11
73734;BMP280;62039;50.000;9.064;2023-04-01T07:58:02;98666.53;;;9.14
73734;BMP280;62039;50.000;9.064;2023-04-01T08:00:34;98667.34;;;9.14
73734;BMP280;62039;50.000;9.064;2023-04-01T08:03:17;98668.16;;;9.15
73734;BMP280;62039;50.000;9.064;2023-04-01T08:05:54;98670.56;;;9.16
73734;BMP280;62039;50.000;9.064;2023-04-01T08:08:30;98662.53;;;9.18
73734;BMP280;62039;50.000;9.064;2023-04-01T08:11:04;98661.56;;;9.19
73734;BMP280;62039;50.000;9.064;2023-04-01T08:13:40;98663.00;;;9.21
73734;BMP280;62039;50.000;9.064;2023-04-01T08:16:16;98669.81;;;9.22
73734;BMP280;62039;50.000;9.064;2023-04-01T08:18:53;98672.22;;;9.24
73734;BMP280;62039;50.000;9.064;2023-04-01T08:21:27;98665.41;;;9.23
73734;BMP280;62039;50.000;9.064;2023-04-01T08:23:56;98684.22;;;9.25
73734;BMP280;62039;50.000;9.064;2023-04-01T08:26:30;98682.25;;;9.27
73734;BMP280;62039;50.000;9.064;2023-04-01T08:29:04;98671.84;;;9.27
73734;BMP280;62039;50.000;9.064;2023-04-01T08:31:37;98689.88;;;9.28
73734;BMP280;62039;50.000;9.064;2023-04-01T08:34:13;98671.06;;;9.33
73734;BMP280;62039;50.000;9.064;2023-04-01T08:36:44;98681.13;;;9.36
73734;BMP280;62039;50.000;9.064;2023-04-01T08:39:16;98679.91;;;9.38
73734;BMP280;62039;50.000;9.064;2023-04-01T08:51:02;98693.16;;;9.37
73734;BMP280;62039;50.000;9.064;2023-04-01T08:53:48;98692.75;;;9.40
73734;BMP280;62039;50.000;9.064;2023-04-01T08:56:18;98688.97;;;9.42
73734;BMP280;62039;50.000;9.064;2023-04-01T08:58:55;98685.56;;;9.42
73734;BMP280;62039;50.000;9.064;2023-04-01T09:01:58;98696.78;;;9.42
73734;BMP280;62039;50.000;9.064;2023-04-01T09:04:44;98698.41;;;9.43
73734;BMP280;62039;50.000;9.064;2023-04-01T09:07:27;98700.00;;;9.44
73734;BMP280;62039;50.000;9.064;2023-04-01T09:13:25;98697.19;;;9.46
73734;BMP280;62039;50.000;9.064;2023-04-01T09:16:19;98699.22;;;9.44
73734;BMP280;62039;50.000;9.064;2023-04-01T09:19:17;98699.41;;;9.42
73734;BMP280;62039;50.000;9.064;2023-04-01T09:22:03;98696.16;;;9.40
73734;BMP280;62039;50.000;9.064;2023-04-01T09:24:51;98703.19;;;9.40
73734;BMP280;62039;50.000;9.064;2023-04-01T09:27:26;98715.22;;;9.41
73734;BMP280;62039;50.000;9.064;2023-04-01T09:36:03;98701.56;;;9.39
73734;BMP280;62039;50.000;9.064;2023-04-01T09:38:39;98704.38;;;9.37
73734;BMP280;62039;50.000;9.064;2023-04-01T09:41:21;98712.38;;;9.36
73734;BMP280;62039;50.000;9.064;2023-04-01T09:44:04;98707.19;;;9.36
73734;BMP280;62039;50.000;9.064;2023-04-01T09:46:46;98707.34;;;9.34
73734;BMP280;62039;50.000;9.064;2023-04-01T09:49:39;98717.97;;;9.33
73734;BMP280;62039;50.000;9.064;2023-04-01T09:52:24;98720.56;;;9.33
73734;BMP280;62039;50.000;9.064;2023-04-01T09:55:00;98716.00;;;9.35
73734;BMP280;62039;50.000;9.064;2023-04-01T09:57:56;98719.59;;;9.34
73734;BMP280;62039;50.000;9.064;2023-04-01T10:01:01;98722.41;;;9.39
73734;BMP280;62039;50.000;9.064;2023-04-01T10:06:58;98729.06;;;9.41
73734;BMP280;62039;50.000;9.064;2023-04-01T10:09:48;98732.06;;;9.45
73734;BMP280;62039;50.000;9.064;2023-04-01T10:12:44;98727.31;;;9.49
73734;BMP280;62039;50.000;9.064;2023-04-01T10:15:38;98727.72;;;9.52
73734;BMP280;62039;50.000;9.064;2023-04-01T10:18:27;98725.72;;;9.54
73734;BMP280;62039;50.000;9.064;2023-04-01T10:21:14;98725.34;;;9.57
73734;BMP280;62039;50.000;9.064;2023-04-01T10:24:03;98717.31;;;9.59
73734;BMP280;62039;50.000;9.064;2023-04-01T10:26:49;98719.41;;;9.63
73734;BMP280;62039;50.000;9.064;2023-04-01T10:33:14;98719.00;;;9.66
73734;BMP280;62039;50.000;9.064;2023-04-01T10:36:17;98723.84;;;9.69
73734;BMP280;62039;50.000;9.064;2023-04-01T10:39:19;98731.25;;;9.72
73734;BMP280;62039;50.000;9.064;2023-04-01T10:48:18;98730.34;;;9.87
73734;BMP280;62039;50.000;9.064;2023-04-01T10:54:11;98720.34;;;9.90
73734;BMP280;62039;50.000;9.064;2023-04-01T10:56:44;98722.34;;;9.95
73734;BMP280;62039;50.000;9.064;2023-04-01T10:59:45;98727.56;;;9.95
73734;BMP280;62039;50.000;9.064;2023-04-01T11:05:55;98734.00;;;9.99
73734;BMP280;62039;50.000;9.064;2023-04-01T11:08:50;98727.78;;;10.00
73734;BMP280;62039;50.000;9.064;2023-04-01T11:12:01;98720.56;;;10.02
73734;BMP280;62039;50.000;9.064;2023-04-01T11:15:02;98726.00;;;10.07
73734;BMP280;62039;50.000;9.064;2023-04-01T11:21:25;98734.84;;;10.12
73734;BMP280;62039;50.000;9.064;2023-04-01T11:24:06;98735.66;;;10.13
73734;BMP280;62039;50.000;9.064;2023-04-01T11:26:44;98739.50;;;10.17
73734;BMP280;62039;50.000;9.064;2023-04-01T11:32:39;98743.53;;;10.26
73734;BMP280;62039;50.000;9.064;2023-04-01T11:35:27;98739.56;;;10.30
73734;BMP280;62039;50.000;9.064;2023-04-01T11:38:08;98739.94;;;10.34
73734;BMP280;62039;50.000;9.064;2023-04-01T11:40:45;98740.97;;;10.39
73734;BMP280;62039;50.000;9.064;2023-04-01T11:43:20;98744.19;;;10.41
73734;BMP280;62039;50.000;9.064;2023-04-01T11:46:03;98747.41;;;10.43
73734;BMP280;62039;50.000;9.064;2023-04-01T11:48:44;98742.59;;;10.47
73734;BMP280;62039;50.000;9.064;2023-04-01T11:51:34;98747.63;;;10.48
73734;BMP280;62039;50.000;9.064;2023-04-01T11:54:17;98744.63;;;10.51
73734;BMP280;62039;50.000;9.064;2023-04-01T11:56:59;98745.03;;;10.55
73734;BMP280;62039;50.000;9.064;2023-04-01T11:59:55;98746.47;;;10.57
73734;BMP280;62039;50.000;9.064;2023-04-01T12:02:29;98752.72;;;10.63
73734;BMP280;62039;50.000;9.064;2023-04-01T12:05:24;98758.34;;;10.67
73734;BMP280;62039;50.000;9.064;2023-04-01T12:08:02;98760.38;;;10.71
73734;BMP280;62039;50.000;9.064;2023-04-01T12:10:39;98761.19;;;10.72
73734;BMP280;62039;50.000;9.064;2023-04-01T12:13:14;98757.53;;;10.73
73734;BMP280;62039;50.000;9.064;2023-04-01T12:15:56;98761.97;;;10.72
73734;BMP280;62039;50.000;9.064;2023-04-01T12:18:33;98757.94;;;10.70
73734;BMP280;62039;50.000;9.064;2023-04-01T12:21:06;98759.94;;;10.68
73734;BMP280;62039;50.000;9.064;2023-04-01T12:23:52;98769.38;;;10.69
73734;BMP280;62039;50.000;9.064;2023-04-01T12:26:39;98756.34;;;10.69
73734;BMP280;62039;50.000;9.064;2023-04-01T12:29:23;98768.41;;;10.70
73734;BMP280;62039;50.000;9.064;2023-04-01T12:32:00;98771.63;;;10.72
73734;BMP280;62039;50.000;9.064;2023-04-01T12:34:41;98764.38;;;10.74
73734;BMP280;62039;50.000;9.064;2023-04-01T12:37:17;98768.59;;;10.75
73734;BMP280;62039;50.000;9.064;2023-04-01T12:43:26;98780.66;;;10.76
73734;BMP280;62039;50.000;9.064;2023-04-01T12:46:00;98775.06;;;10.79
73734;BMP280;62039;50.000;9.064;2023-04-01T12:51:41;98769.41;;;10.82
73734;BMP280;62039;50.000;9.064;2023-04-01T12:57:30;98773.63;;;10.76
73734;BMP280;62039;50.000;9.064;2023-04-01T13:00:23;98774.63;;;10.75
73734;BMP280;62039;50.000;9.064;2023-04-01T13:03:02;98781.66;;;10.75
73734;BMP280;62039;50.000;9.064;2023-04-01T13:06:00;98778.44;;;10.73
73734;BMP280;62039;50.000;9.064;2023-04-01T13:08:39;98779.03;;;10.75
73734;BMP280;62039;50.000;9.064;2023-04-01T13:11:09;98779.47;;;10.78
73734;BMP280;62039;50.000;9.064;2023-04-01T13:14:07;98785.28;;;10.80
73734;BMP280;62039;50.000;9.064;2023-04-01T13:17:06;98782.47;;;10.82
73734;BMP280;62039;50.000;9.064;2023-04-01T13:19:40;98779.84;;;10.82
73734;BMP280;62039;50.000;9.064;2023-04-01T13:22:21;98778.88;;;10.83
73734;BMP280;62039;50.000;9.064;2023-04-01T13:24:55;98783.09;;;10.84
73734;BMP280;62039;50.000;9.064;2023-04-01T13:27:30;98782.91;;;10.85
73734;BMP280;62039;50.000;9.064;2023-04-01T13:30:13;98787.31;;;10.85
73734;BMP280;62039;50.000;9.064;2023-04-01T13:32:50;98790.91;;;10.84
73734;BMP280;62039;50.000;9.064;2023-04-01T13:35:28;98793.34;;;10.85
73734;BMP280;62039;50.000;9.064;2023-04-01T13:40:54;98790.13;;;10.83
73734;BMP280;62039;50.000;9.064;2023-04-01T13:43:34;98799.75;;;10.83
73734;BMP280;62039;50.000;9.064;2023-04-01T13:46:26;98790.13;;;10.83
73734;BMP280;62039;50.000;9.064;2023-04-01T13:52:08;98794.91;;;10.80
73734;BMP280;62039;50.000;9.064;2023-04-01T13:58:19;98818.38;;;10.67
73734;BMP280;62039;50.000;9.064;2023-04-01T14:00:54;98807.13;;;10.59
73734;BMP280;62039;50.000;9.064;2023-04-01T14:03:37;98821.72;;;10.54
73734;BMP280;62039;50.000;9.064;2023-04-01T14:06:17;98817.72;;;10.51
73734;BMP280;62039;50.000;9.064;2023-04-01T14:09:06;98817.09;;;10.49
73734;BMP280;62039;50.000;9.064;2023-04-01T14:11:45;98822.50;;;10.48
73734;BMP280;62039;50.000;9.064;2023-04-01T14:14:22;98812.88;;;10.48
73734;BMP280;62039;50.000;9.064;2023-04-01T14:17:02;98822.34;;;10.49
73734;BMP280;62039;50.000;9.064;2023-04-01T14:19:51;98812.88;;;10.48
73734;BMP280;62039;50.000;9.064;2023-04-01T14:22:30;98817.50;;;10.53
73734;BMP280;62039;50.000;9.064;2023-04-01T14:25:22;98824.34;;;10.54
73734;BMP280;62039;50.000;9.064;2023-04-01T14:28:00;98813.75;;;10.55
73734;BMP280;62039;50.000;9.064;2023-04-01T14:30:42;98811.13;;;10.55
73734;BMP280;62039;50.000;9.064;2023-04-01T14:33:21;98823.81;;;10.58
73734;BMP280;62039;50.000;9.064;2023-04-01T14:36:00;98823.41;;;10.62
73734;BMP280;62039;50.000;9.064;2023-04-01T14:38:39;98824.59;;;10.66
73734;BMP280;62039;50.000;9.064;2023-04-01T14:41:16;98833.06;;;10.68
73734;BMP280;62039;50.000;9.064;2023-04-01T14:47:06;98826.63;;;10.64
73734;BMP280;62039;50.000;9.064;2023-04-01T14:49:39;98832.84;;;10.63
73734;BMP280;62039;50.000;9.064;2023-04-01T14:52:12;98835.47;;;10.63
73734;BMP280;62039;50.000;9.064;2023-04-01T14:54:44;98842.28;;;10.64
73734;BMP280;62039;50.000;9.064;2023-04-01T14:57:14;98838.28;;;10.68
73734;BMP280;62039;50.000;9.064;2023-04-01T14:59:48;98834.66;;;10.69
73734;BMP280;62039;50.000;9.064;2023-04-01T15:02:40;98844.94;;;10.70
73734;BMP280;62039;50.000;9.064;2023-04-01T15:05:29;98849.16;;;10.71
73734;BMP280;62039;50.000;9.064;2023-04-01T15:08:15;98850.56;;;10.74
73734;BMP280;62039;50.000;9.064;2023-04-01T15:11:05;98852.97;;;10.75
73734;BMP280;62039;50.000;9.064;2023-04-01T15:16:35;98868.03;;;10.73
73734;BMP280;62039;50.000;9.064;2023-04-01T15:19:14;98856.78;;;10.73
73734;BMP280;62039;50.000;9.064;2023-04-01T15:22:06;98866.81;;;10.69
73734;BMP280;62039;50.000;9.064;2023-04-01T15:24:45;98872.84;;;10.70
73734;BMP280;62039;50.000;9.064;2023-04-01T15:27:28;98867.00;;;10.68
73734;BMP280;62039;50.000;9.064;2023-04-01T15:30:32;98868.41;;;10.64
73734;BMP280;62039;50.000;9.064;2023-04-01T15:33:13;98884.06;;;10.64
73734;BMP280;62039;50.000;9.064;2023-04-01T15:35:46;98874.81;;;10.61
73734;BMP280;62039;50.000;9.064;2023-04-01T15:38:26;98869.19;;;10.57
73734;BMP280;62039;50.000;9.064;2023-04-01T15:41:02;98872.16;;;10.54
73734;BMP280;62039;50.000;9.064;2023-04-01T15:43:40;98881.97;;;10.52
73734;BMP280;62039;50.000;9.064;2023-04-01T15:46:36;98870.94;;;10.50
73734;BMP280;62039;50.000;9.064;2023-04-01T15:49:19;98881.56;;;10.49
73734;BMP280;62039;50.000;9.064;2023-04-01T15:52:00;98897.22;;;10.49
73734;BMP280;62039;50.000;9.064;2023-04-01T15:57:34;98899.22;;;10.47
73734;BMP280;62039;50.000;9.064;2023-04-01T16:00:11;98901.00;;;10.46
73734;BMP280;62039;50.000;9.064;2023-04-01T16:02:46;98899.41;;;10.45
73734;BMP280;62039;50.000;9.064;2023-04-01T16:05:30;98901.22;;;10.45
73734;BMP280;62039;50.000;9.064;2023-04-01T16:08:37;98907.19;;;10.39
73734;BMP280;62039;50.000;9.064;2023-04-01T16:11:16;98908.41;;;10.36
73734;BMP280;62039;50.000;9.064;2023-04-01T16:13:53;98905.97;;;10.35
73734;BMP280;62039;50.000;9.064;2023-04-01T16:16:32;98907.59;;;10.36
73734;BMP280;62039;50.000;9.064;2023-04-01T16:19:24;98908.41;;;10.36
73734;BMP280;62039;50.000;9.064;2023-04-01T16:21:58;98914.25;;;10.38